Time;durP1;ratioP1;P1;durP2;ratioP2;P2;SDS_P1;SDS_P2;PMS_P1;PMS_P2;Temp;Humidity;BMP_temperature;BMP_pressure;BME280_temperature;BME280_humidity;BME280_pressure;Samples;Min_cycle;Max_cycle;Signal;HPM_P1;HPM_P2
2020/01/04 00:00:53;;;;;;;2.50;2.27;;;;;;;19.09;39.60;101592.60;;;;-47
2020/01/04 00:03:53;;;;;;;2.83;2.20;;;;;;;19.07;39.61;101598.00;;;;-47
2020/01/04 00:06:53;;;;;;;3.27;2.29;;;;;;;19.05;39.64;101604.80;;;;-47
2020/01/04 00:09:52;;;;;;;2.37;2.17;;;;;;;19.04;39.63;101604.06;;;;-47
2020/01/04 00:12:53;;;;;;;3.05;2.19;;;;;;;19.03;39.65;101609.30;;;;-47
2020/01/04 00:15:52;;;;;;;2.61;2.00;;;;;;;19.02;39.64;101608.45;;;;-47
2020/01/04 00:18:53;;;;;;;2.22;2.02;;;;;;;19.00;39.68;101623.16;;;;-46
2020/01/04 00:22:01;;;;;;;2.49;2.07;;;;;;;18.98;39.67;101629.06;;;;-47
2020/01/04 00:24:52;;;;;;;2.39;2.17;;;;;;;18.97;39.71;101635.53;;;;-46
2020/01/04 00:27:52;;;;;;;2.54;2.12;;;;;;;18.95;39.73;101633.55;;;;-47
2020/01/04 00:31:17;;;;;;;2.61;2.05;;;;;;;18.94;39.74;101639.95;;;;-47
2020/01/04 00:33:52;;;;;;;2.64;2.20;;;;;;;18.93;39.71;101636.94;;;;-46
2020/01/04 00:36:52;;;;;;;2.25;2.05;;;;;;;18.91;39.72;101628.77;;;;-46
2020/01/04 00:39:53;;;;;;;2.55;1.92;;;;;;;18.89;39.72;101630.98;;;;-46
2020/01/04 00:42:52;;;;;;;2.47;2.13;;;;;;;18.89;39.73;101650.89;;;;-46
2020/01/04 00:45:53;;;;;;;2.17;1.91;;;;;;;18.87;39.74;101661.02;;;;-46
2020/01/04 00:48:53;;;;;;;2.27;1.93;;;;;;;18.86;39.74;101664.92;;;;-46
2020/01/04 00:51:53;;;;;;;2.18;1.98;;;;;;;18.85;39.72;101657.72;;;;-47
2020/01/04 00:54:52;;;;;;;2.11;1.86;;;;;;;18.83;39.75;101655.19;;;;-46
2020/01/04 00:57:53;;;;;;;2.59;1.95;;;;;;;18.81;39.76;101652.98;;;;-46
2020/01/04 01:00:53;;;;;;;2.47;2.01;;;;;;;18.80;39.79;101668.20;;;;-47
2020/01/04 01:03:53;;;;;;;2.45;1.99;;;;;;;18.78;39.80;101677.83;;;;-46
2020/01/04 01:06:53;;;;;;;2.09;1.80;;;;;;;18.76;39.82;101680.38;;;;-46
2020/01/04 01:09:52;;;;;;;2.22;1.90;;;;;;;18.75;39.81;101680.03;;;;-46
2020/01/04 01:12:53;;;;;;;2.11;1.81;;;;;;;18.74;39.83;101689.89;;;;-47
2020/01/04 01:15:53;;;;;;;1.83;1.65;;;;;;;18.74;39.83;101686.81;;;;-47
2020/01/04 01:18:52;;;;;;;1.83;1.71;;;;;;;18.71;39.84;101688.63;;;;-47
2020/01/04 01:21:53;;;;;;;2.51;1.99;;;;;;;18.71;39.83;101688.28;;;;-47
2020/01/04 01:24:53;;;;;;;2.02;1.81;;;;;;;18.70;39.85;101699.42;;;;-46
2020/01/04 01:27:53;;;;;;;2.37;1.97;;;;;;;18.69;39.86;101701.72;;;;-46
2020/01/04 01:30:53;;;;;;;2.13;1.85;;;;;;;18.68;39.87;101706.32;;;;-47
2020/01/04 01:33:53;;;;;;;1.93;1.67;;;;;;;18.66;39.90;101712.23;;;;-46
2020/01/04 01:36:52;;;;;;;2.22;1.80;;;;;;;18.65;39.92;101719.52;;;;-46
2020/01/04 01:39:53;;;;;;;2.05;1.85;;;;;;;18.64;39.89;101720.29;;;;-47
2020/01/04 01:42:53;;;;;;;1.95;1.78;;;;;;;18.62;39.93;101711.56;;;;-46
2020/01/04 01:45:55;;;;;;;2.33;1.87;;;;;;;18.62;39.93;101713.40;;;;-46
2020/01/04 01:48:53;;;;;;;2.18;1.94;;;;;;;18.61;39.96;101714.38;;;;-46
2020/01/04 01:51:53;;;;;;;2.67;1.82;;;;;;;18.60;39.91;101707.22;;;;-46
2020/01/04 01:54:53;;;;;;;2.17;1.89;;;;;;;18.59;39.97;101712.18;;;;-47
2020/01/04 01:57:52;;;;;;;2.83;1.89;;;;;;;18.58;39.96;101719.59;;;;-47
2020/01/04 02:00:52;;;;;;;1.92;1.70;;;;;;;18.57;39.98;101723.31;;;;-47
2020/01/04 02:03:52;;;;;;;1.97;1.79;;;;;;;18.55;40.01;101734.47;;;;-47
2020/01/04 02:06:52;;;;;;;2.33;1.80;;;;;;;18.54;40.01;101742.62;;;;-46
2020/01/04 02:09:52;;;;;;;1.92;1.62;;;;;;;18.54;40.02;101752.47;;;;-47
2020/01/04 02:12:53;;;;;;;2.14;1.72;;;;;;;18.52;40.02;101757.02;;;;-46
2020/01/04 02:15:52;;;;;;;2.21;1.83;;;;;;;18.52;40.03;101771.81;;;;-46
2020/01/04 02:18:52;;;;;;;2.27;1.83;;;;;;;18.49;40.03;101757.89;;;;-49
2020/01/04 02:21:53;;;;;;;1.96;1.73;;;;;;;18.48;40.07;101766.91;;;;-47
2020/01/04 02:24:52;;;;;;;2.15;1.67;;;;;;;18.48;40.07;101755.41;;;;-47
2020/01/04 02:27:52;;;;;;;2.18;1.85;;;;;;;18.47;40.07;101758.02;;;;-46
2020/01/04 02:30:53;;;;;;;2.05;1.81;;;;;;;18.45;40.08;101757.03;;;;-46
2020/01/04 02:33:53;;;;;;;2.08;1.75;;;;;;;18.43;40.05;101760.20;;;;-47
2020/01/04 02:36:53;;;;;;;2.32;1.75;;;;;;;18.42;40.07;101764.20;;;;-47
2020/01/04 02:39:52;;;;;;;2.07;1.81;;;;;;;18.42;40.07;101770.73;;;;-47
2020/01/04 02:42:53;;;;;;;2.00;1.65;;;;;;;18.42;40.10;101782.92;;;;-47
2020/01/04 02:45:53;;;;;;;1.98;1.72;;;;;;;18.41;40.08;101786.98;;;;-47
2020/01/04 02:48:52;;;;;;;2.03;1.80;;;;;;;18.39;40.09;101786.36;;;;-46
2020/01/04 02:51:53;;;;;;;2.14;1.65;;;;;;;18.38;40.11;101778.92;;;;-47
2020/01/04 02:54:53;;;;;;;1.74;1.63;;;;;;;18.38;40.10;101783.70;;;;-46
2020/01/04 02:57:53;;;;;;;2.41;1.80;;;;;;;18.37;40.09;101785.55;;;;-46
2020/01/04 03:00:53;;;;;;;1.82;1.66;;;;;;;18.36;40.12;101781.63;;;;-47
2020/01/04 03:03:52;;;;;;;1.69;1.59;;;;;;;18.35;40.11;101781.20;;;;-47
2020/01/04 03:06:53;;;;;;;2.16;1.79;;;;;;;18.33;40.13;101776.72;;;;-47
2020/01/04 03:09:53;;;;;;;2.06;1.70;;;;;;;18.32;40.14;101775.08;;;;-46
2020/01/04 03:13:04;;;;;;;1.88;1.67;;;;;;;18.32;40.14;101774.16;;;;-46
2020/01/04 03:15:55;;;;;;;1.95;1.70;;;;;;;18.30;40.15;101773.22;;;;-46
2020/01/04 03:18:53;;;;;;;1.73;1.61;;;;;;;18.31;40.11;101774.80;;;;-46
2020/01/04 03:21:53;;;;;;;1.93;1.60;;;;;;;18.30;40.17;101779.07;;;;-47
2020/01/04 03:24:53;;;;;;;1.79;1.60;;;;;;;18.29;40.18;101778.11;;;;-47
2020/01/04 03:27:53;;;;;;;2.09;1.59;;;;;;;18.28;40.17;101772.52;;;;-47
2020/01/04 03:30:53;;;;;;;1.69;1.59;;;;;;;18.27;40.16;101766.14;;;;-46
2020/01/04 03:33:53;;;;;;;1.63;1.53;;;;;;;18.26;40.20;101773.22;;;;-46
2020/01/04 03:36:52;;;;;;;2.59;1.73;;;;;;;18.27;40.20;101786.83;;;;-46
2020/01/04 03:39:52;;;;;;;1.66;1.53;;;;;;;18.24;40.23;101792.75;;;;-46
2020/01/04 03:42:53;;;;;;;1.61;1.50;;;;;;;18.24;40.21;101787.18;;;;-46
2020/01/04 03:45:52;;;;;;;1.81;1.61;;;;;;;18.23;40.23;101786.27;;;;-47
2020/01/04 03:48:53;;;;;;;1.60;1.50;;;;;;;18.22;40.21;101781.37;;;;-46
2020/01/04 03:51:53;;;;;;;1.76;1.60;;;;;;;18.21;40.21;101781.08;;;;-47
2020/01/04 03:54:52;;;;;;;2.11;1.68;;;;;;;18.20;40.24;101782.21;;;;-46
2020/01/04 03:57:53;;;;;;;1.70;1.60;;;;;;;18.20;40.21;101790.37;;;;-46
2020/01/04 04:00:53;;;;;;;1.58;1.48;;;;;;;18.18;40.22;101794.74;;;;-46
2020/01/04 04:03:53;;;;;;;1.73;1.61;;;;;;;18.18;40.22;101809.73;;;;-46
2020/01/04 04:06:53;;;;;;;2.12;1.63;;;;;;;18.17;40.26;101821.59;;;;-46
2020/01/04 04:09:53;;;;;;;1.69;1.50;;;;;;;18.17;40.23;101824.09;;;;-46
2020/01/04 04:12:52;;;;;;;1.85;1.60;;;;;;;18.16;40.25;101825.34;;;;-46
2020/01/04 04:15:52;;;;;;;2.25;1.50;;;;;;;18.15;40.26;101835.99;;;;-47
2020/01/04 04:18:52;;;;;;;1.86;1.49;;;;;;;18.14;40.24;101840.27;;;;-47
2020/01/04 04:21:53;;;;;;;1.61;1.51;;;;;;;18.12;40.27;101834.27;;;;-46
2020/01/04 04:24:53;;;;;;;1.73;1.53;;;;;;;18.12;40.28;101834.94;;;;-46
2020/01/04 04:27:52;;;;;;;1.73;1.59;;;;;;;18.12;40.26;101839.02;;;;-46
2020/01/04 04:30:53;;;;;;;2.17;1.63;;;;;;;18.11;40.27;101839.92;;;;-47
2020/01/04 04:33:53;;;;;;;1.99;1.59;;;;;;;18.10;40.28;101841.82;;;;-46
2020/01/04 04:36:55;;;;;;;1.63;1.49;;;;;;;18.09;40.27;101842.79;;;;-47
2020/01/04 04:39:52;;;;;;;2.10;1.53;;;;;;;18.10;40.26;101844.03;;;;-47
2020/01/04 04:42:53;;;;;;;1.67;1.55;;;;;;;18.08;40.24;101847.02;;;;-46
2020/01/04 04:45:53;;;;;;;1.75;1.50;;;;;;;18.10;40.25;101849.33;;;;-47
2020/01/04 04:48:53;;;;;;;1.60;1.50;;;;;;;18.11;40.25;101851.23;;;;-47
2020/01/04 04:51:52;;;;;;;1.73;1.50;;;;;;;18.12;40.28;101854.70;;;;-46
2020/01/04 04:54:52;;;;;;;1.71;1.51;;;;;;;18.13;40.26;101856.56;;;;-46
2020/01/04 04:57:53;;;;;;;1.62;1.51;;;;;;;18.16;40.27;101865.87;;;;-46
2020/01/04 05:00:53;;;;;;;1.53;1.41;;;;;;;18.17;40.28;101872.42;;;;-47
2020/01/04 05:03:53;;;;;;;1.65;1.50;;;;;;;18.19;40.28;101875.97;;;;-48
2020/01/04 05:06:53;;;;;;;1.75;1.50;;;;;;;18.22;40.28;101885.38;;;;-46
2020/01/04 05:09:52;;;;;;;1.43;1.33;;;;;;;18.24;40.28;101894.09;;;;-46
2020/01/04 05:12:52;;;;;;;1.50;1.40;;;;;;;18.28;40.27;101894.55;;;;-48
2020/01/04 05:15:53;;;;;;;1.74;1.49;;;;;;;18.32;40.25;101901.14;;;;-48
2020/01/04 05:18:52;;;;;;;2.79;1.42;;;;;;;18.36;40.22;101898.86;;;;-51
2020/01/04 05:21:52;;;;;;;1.64;1.48;;;;;;;18.39;40.28;101903.27;;;;-56
2020/01/04 05:24:53;;;;;;;1.65;1.28;;;;;;;18.43;40.27;101903.94;;;;-57
2020/01/04 05:27:52;;;;;;;1.51;1.34;;;;;;;18.47;40.25;101918.80;;;;-56
2020/01/04 05:31:01;;;;;;;1.48;1.37;;;;;;;18.52;40.19;101917.46;;;;-56
2020/01/04 05:33:52;;;;;;;1.35;1.25;;;;;;;18.54;40.22;101920.64;;;;-56
2020/01/04 05:36:53;;;;;;;1.50;1.40;;;;;;;18.57;40.26;101924.14;;;;-56
2020/01/04 05:39:53;;;;;;;1.53;1.40;;;;;;;18.62;40.32;101924.89;;;;-56
2020/01/04 05:42:53;;;;;;;1.69;1.52;;;;;;;18.64;40.35;101927.73;;;;-56
2020/01/04 05:45:52;;;;;;;1.56;1.33;;;;;;;18.68;40.32;101935.08;;;;-56
2020/01/04 05:48:52;;;;;;;1.94;1.37;;;;;;;18.72;40.29;101941.05;;;;-55
2020/01/04 05:51:52;;;;;;;1.78;1.32;;;;;;;18.74;40.31;101937.59;;;;-55
2020/01/04 05:54:52;;;;;;;1.64;1.40;;;;;;;18.77;40.37;101936.52;;;;-55
2020/01/04 05:57:52;;;;;;;1.58;1.40;;;;;;;18.80;40.35;101936.73;;;;-55
2020/01/04 06:00:52;;;;;;;1.60;1.35;;;;;;;18.84;40.31;101940.87;;;;-55
2020/01/04 06:03:53;;;;;;;1.75;1.37;;;;;;;18.86;40.31;101943.68;;;;-56
2020/01/04 06:06:52;;;;;;;1.46;1.35;;;;;;;18.89;40.33;101948.53;;;;-55
2020/01/04 06:09:53;;;;;;;1.77;1.38;;;;;;;18.92;40.37;101949.09;;;;-55
2020/01/04 06:12:53;;;;;;;1.32;1.22;;;;;;;18.96;40.32;101954.06;;;;-56
2020/01/04 06:15:53;;;;;;;1.42;1.32;;;;;;;18.98;40.27;101959.94;;;;-56
2020/01/04 06:18:53;;;;;;;1.79;1.39;;;;;;;19.02;40.35;101952.80;;;;-57
2020/01/04 06:21:53;;;;;;;1.48;1.38;;;;;;;19.04;40.33;101942.44;;;;-56
2020/01/04 06:24:52;;;;;;;1.30;1.20;;;;;;;19.07;40.28;101941.22;;;;-56
2020/01/04 06:27:53;;;;;;;1.51;1.41;;;;;;;19.08;40.31;101945.53;;;;-55
2020/01/04 06:30:53;;;;;;;1.50;1.40;;;;;;;19.12;40.28;101956.56;;;;-55
2020/01/04 06:33:53;;;;;;;1.54;1.30;;;;;;;19.13;40.26;101964.58;;;;-55
2020/01/04 06:36:52;;;;;;;1.40;1.30;;;;;;;19.14;40.21;101963.17;;;;-56
2020/01/04 06:39:52;;;;;;;1.37;1.27;;;;;;;19.17;40.20;101960.98;;;;-56
2020/01/04 06:42:52;;;;;;;1.45;1.35;;;;;;;19.18;40.17;101963.62;;;;-55
2020/01/04 06:45:52;;;;;;;1.51;1.33;;;;;;;19.19;40.19;101968.16;;;;-55
2020/01/04 06:48:53;;;;;;;1.68;1.35;;;;;;;19.20;40.14;101967.41;;;;-55
2020/01/04 06:51:53;;;;;;;1.61;1.29;;;;;;;19.22;40.11;101967.88;;;;-55
2020/01/04 06:54:53;;;;;;;1.39;1.29;;;;;;;19.24;40.12;101967.05;;;;-55
2020/01/04 06:57:52;;;;;;;1.43;1.33;;;;;;;19.26;40.08;101976.18;;;;-55
2020/01/04 07:00:53;;;;;;;1.53;1.43;;;;;;;19.27;40.09;101979.51;;;;-55
2020/01/04 07:03:52;;;;;;;1.48;1.30;;;;;;;19.28;40.06;101978.34;;;;-56
2020/01/04 07:06:52;;;;;;;1.37;1.24;;;;;;;19.31;40.07;101969.96;;;;-55
2020/01/04 07:09:53;;;;;;;1.43;1.32;;;;;;;19.32;40.04;101974.89;;;;-56
2020/01/04 07:12:52;;;;;;;1.68;1.30;;;;;;;19.35;39.99;101979.06;;;;-55
2020/01/04 07:15:52;;;;;;;1.35;1.25;;;;;;;19.37;40.02;101986.02;;;;-56
2020/01/04 07:18:52;;;;;;;1.42;1.30;;;;;;;19.38;40.00;101982.22;;;;-55
2020/01/04 07:21:52;;;;;;;1.52;1.39;;;;;;;19.40;39.98;101989.84;;;;-56
2020/01/04 07:24:52;;;;;;;1.47;1.37;;;;;;;19.43;39.97;101999.49;;;;-55
2020/01/04 07:27:52;;;;;;;1.38;1.23;;;;;;;19.44;40.01;101990.30;;;;-55
2020/01/04 07:30:53;;;;;;;1.40;1.30;;;;;;;19.46;39.98;101992.33;;;;-56
2020/01/04 07:33:53;;;;;;;1.35;1.25;;;;;;;19.48;39.96;101989.92;;;;-56
2020/01/04 07:36:52;;;;;;;1.51;1.35;;;;;;;19.50;39.92;101977.47;;;;-56
2020/01/04 07:39:53;;;;;;;1.39;1.26;;;;;;;19.53;39.92;101965.83;;;;-54
2020/01/04 07:42:52;;;;;;;1.33;1.23;;;;;;;19.54;39.93;101961.82;;;;-55
2020/01/04 07:45:52;;;;;;;1.41;1.31;;;;;;;19.54;39.89;101961.67;;;;-56
2020/01/04 07:48:53;;;;;;;1.31;1.18;;;;;;;19.57;39.78;101959.02;;;;-56
2020/01/04 07:51:52;;;;;;;1.27;1.17;;;;;;;19.58;39.87;101958.80;;;;-55
2020/01/04 07:54:52;;;;;;;1.29;1.19;;;;;;;19.59;39.85;101956.86;;;;-56
2020/01/04 07:57:53;;;;;;;1.39;1.29;;;;;;;19.60;39.81;101965.72;;;;-55
2020/01/04 08:00:52;;;;;;;1.41;1.31;;;;;;;19.61;39.83;101976.28;;;;-55
2020/01/04 08:03:52;;;;;;;1.43;1.31;;;;;;;19.63;39.79;101983.06;;;;-56
2020/01/04 08:06:52;;;;;;;1.40;1.22;;;;;;;19.64;39.76;101994.42;;;;-55
2020/01/04 08:09:52;;;;;;;1.66;1.30;;;;;;;19.66;39.76;101994.12;;;;-55
2020/01/04 08:12:53;;;;;;;1.45;1.21;;;;;;;19.67;39.78;102003.91;;;;-55
2020/01/04 08:15:52;;;;;;;2.38;1.31;;;;;;;19.67;39.73;102005.25;;;;-60
2020/01/04 08:18:52;;;;;;;1.97;1.48;;;;;;;19.69;39.65;102003.77;;;;-61
2020/01/04 08:21:52;;;;;;;1.73;1.41;;;;;;;19.69;39.66;102003.09;;;;-61
2020/01/04 08:24:52;;;;;;;1.40;1.30;;;;;;;19.71;39.66;102005.02;;;;-61
2020/01/04 08:27:53;;;;;;;2.71;1.33;;;;;;;19.71;39.69;102013.78;;;;-61
2020/01/04 08:30:52;;;;;;;2.04;1.33;;;;;;;19.75;39.63;102018.20;;;;-61
2020/01/04 08:33:53;;;;;;;2.68;1.35;;;;;;;19.75;39.64;102019.81;;;;-61
2020/01/04 08:36:53;;;;;;;1.75;1.31;;;;;;;19.77;39.53;102016.49;;;;-61
2020/01/04 08:39:52;;;;;;;1.91;1.39;;;;;;;19.78;39.60;102024.10;;;;-56
2020/01/04 08:42:52;;;;;;;1.39;1.29;;;;;;;19.78;39.58;102036.64;;;;-57
2020/01/04 08:45:52;;;;;;;1.78;1.29;;;;;;;19.79;39.61;102038.20;;;;-57
2020/01/04 08:48:53;;;;;;;1.56;1.25;;;;;;;19.79;39.55;102042.72;;;;-56
2020/01/04 08:51:53;;;;;;;1.43;1.25;;;;;;;19.79;39.55;102037.36;;;;-57
2020/01/04 08:54:53;;;;;;;1.39;1.29;;;;;;;19.80;39.51;102042.84;;;;-57
2020/01/04 08:57:52;;;;;;;2.43;1.30;;;;;;;19.80;39.51;102045.16;;;;-56
2020/01/04 09:00:52;;;;;;;1.93;1.36;;;;;;;19.80;39.49;102056.11;;;;-57
2020/01/04 09:03:52;;;;;;;1.45;1.30;;;;;;;19.81;39.52;102064.20;;;;-57
2020/01/04 09:06:52;;;;;;;1.56;1.31;;;;;;;19.81;39.48;102063.66;;;;-56
2020/01/04 09:09:52;;;;;;;1.53;1.37;;;;;;;19.82;39.50;102073.52;;;;-57
2020/01/04 09:12:52;;;;;;;1.47;1.19;;;;;;;19.85;39.38;102078.41;;;;-57
2020/01/04 09:15:52;;;;;;;1.41;1.29;;;;;;;19.84;39.43;102078.80;;;;-56
2020/01/04 09:18:52;;;;;;;1.81;1.33;;;;;;;19.85;39.45;102070.86;;;;-57
2020/01/04 09:21:53;;;;;;;2.02;1.45;;;;;;;19.84;39.44;102077.95;;;;-57
2020/01/04 09:24:53;;;;;;;1.39;1.27;;;;;;;19.86;39.42;102070.05;;;;-57
2020/01/04 09:27:53;;;;;;;1.57;1.25;;;;;;;19.86;39.45;102082.78;;;;-57
2020/01/04 09:30:53;;;;;;;1.54;1.28;;;;;;;19.88;39.45;102087.34;;;;-57
2020/01/04 09:33:52;;;;;;;2.11;1.40;;;;;;;19.89;39.44;102089.14;;;;-57
2020/01/04 09:36:52;;;;;;;1.40;1.29;;;;;;;19.89;39.42;102086.63;;;;-57
2020/01/04 09:39:52;;;;;;;1.78;1.49;;;;;;;19.91;39.46;102084.64;;;;-57
2020/01/04 09:42:53;;;;;;;2.01;1.41;;;;;;;19.93;39.36;102074.72;;;;-56
2020/01/04 09:45:53;;;;;;;1.60;1.39;;;;;;;19.94;39.36;102074.67;;;;-57
2020/01/04 09:48:53;;;;;;;2.47;1.37;;;;;;;19.97;39.42;102066.22;;;;-52
2020/01/04 09:51:52;;;;;;;2.20;1.30;;;;;;;19.98;39.88;102071.30;;;;-52
2020/01/04 09:54:52;;;;;;;1.56;1.41;;;;;;;20.00;40.02;102068.91;;;;-53
2020/01/04 09:57:52;;;;;;;2.60;1.37;;;;;;;20.01;40.01;102068.70;;;;-48
2020/01/04 10:01:00;;;;;;;4.71;2.30;;;;;;;19.99;38.75;102062.75;;;;-57
2020/01/04 10:03:53;;;;;;;5.16;2.12;;;;;;;19.99;38.80;102054.88;;;;-49
2020/01/04 10:06:53;;;;;;;3.05;1.83;;;;;;;20.02;39.39;102061.22;;;;-56
2020/01/04 10:09:52;;;;;;;3.75;1.80;;;;;;;20.06;39.79;102070.33;;;;-52
2020/01/04 10:12:52;;;;;;;2.39;1.75;;;;;;;20.09;39.82;102064.63;;;;-58
2020/01/04 10:15:52;;;;;;;4.17;1.69;;;;;;;20.11;39.94;102072.92;;;;-58
2020/01/04 10:18:52;;;;;;;3.27;1.84;;;;;;;20.13;39.83;102076.13;;;;-52
2020/01/04 10:21:53;;;;;;;3.47;1.79;;;;;;;20.15;39.79;102070.34;;;;-49
2020/01/04 10:24:52;;;;;;;3.01;1.79;;;;;;;20.19;40.30;102062.17;;;;-55
2020/01/04 10:27:53;;;;;;;2.31;1.63;;;;;;;20.20;40.29;102056.53;;;;-54
2020/01/04 10:30:52;;;;;;;2.51;1.70;;;;;;;20.21;40.23;102054.19;;;;-56
2020/01/04 10:33:52;;;;;;;5.97;1.55;;;;;;;20.23;40.24;102065.23;;;;-56
2020/01/04 10:36:52;;;;;;;2.19;1.57;;;;;;;20.25;40.08;102064.75;;;;-48
2020/01/04 10:39:52;;;;;;;1.73;1.47;;;;;;;20.29;40.73;102065.19;;;;-51
2020/01/04 10:42:53;;;;;;;3.00;1.54;;;;;;;20.30;40.52;102067.94;;;;-50
2020/01/04 10:45:52;;;;;;;2.04;1.52;;;;;;;20.31;40.40;102067.50;;;;-48
2020/01/04 10:48:52;;;;;;;3.13;1.71;;;;;;;20.31;40.20;102054.58;;;;-51
2020/01/04 10:51:52;;;;;;;3.38;1.61;;;;;;;20.32;40.40;102051.19;;;;-51
2020/01/04 10:54:52;;;;;;;2.09;1.63;;;;;;;20.33;40.07;102046.44;;;;-50
2020/01/04 10:57:52;;;;;;;2.62;1.65;;;;;;;20.35;40.10;102035.21;;;;-52
2020/01/04 11:00:52;;;;;;;4.61;1.71;;;;;;;20.35;39.72;102034.31;;;;-52
2020/01/04 11:03:52;;;;;;;4.33;1.76;;;;;;;20.35;39.86;102034.88;;;;-52
2020/01/04 11:06:52;;;;;;;2.19;1.57;;;;;;;20.39;39.87;102043.20;;;;-50
2020/01/04 11:10:05;;;;;;;2.81;1.61;;;;;;;20.36;39.66;102051.57;;;;-49
2020/01/04 11:12:52;;;;;;;4.64;1.75;;;;;;;20.38;39.67;102053.89;;;;-50
2020/01/04 11:15:52;;;;;;;2.41;1.59;;;;;;;20.37;39.74;102044.69;;;;-50
2020/01/04 11:18:53;;;;;;;3.08;1.50;;;;;;;20.36;39.59;102046.30;;;;-50
2020/01/04 11:21:53;;;;;;;2.65;1.60;;;;;;;20.36;39.56;102043.11;;;;-50
2020/01/04 11:24:52;;;;;;;2.83;1.58;;;;;;;20.36;39.54;102038.64;;;;-50
2020/01/04 11:27:52;;;;;;;2.23;1.52;;;;;;;20.35;39.49;102041.21;;;;-52
2020/01/04 11:30:52;;;;;;;2.19;1.53;;;;;;;20.35;39.50;102046.25;;;;-51
2020/01/04 11:33:52;;;;;;;1.57;1.39;;;;;;;20.36;39.48;102048.88;;;;-59
2020/01/04 11:36:53;;;;;;;1.72;1.50;;;;;;;20.35;39.51;102040.27;;;;-47
2020/01/04 11:39:53;;;;;;;1.85;1.50;;;;;;;20.36;39.51;102048.20;;;;-47
2020/01/04 11:42:52;;;;;;;1.76;1.49;;;;;;;20.36;39.48;102031.87;;;;-47
2020/01/04 11:45:52;;;;;;;1.75;1.59;;;;;;;20.37;39.47;102032.50;;;;-47
2020/01/04 11:48:52;;;;;;;1.69;1.51;;;;;;;20.36;39.49;102036.63;;;;-51
2020/01/04 11:51:53;;;;;;;1.64;1.49;;;;;;;20.36;39.46;102026.91;;;;-51
2020/01/04 11:54:52;;;;;;;2.03;1.49;;;;;;;20.37;39.47;102029.64;;;;-51
2020/01/04 11:57:53;;;;;;;1.73;1.53;;;;;;;20.38;39.45;102031.22;;;;-51
2020/01/04 12:00:52;;;;;;;1.99;1.36;;;;;;;20.36;39.43;102022.15;;;;-50
2020/01/04 12:03:52;;;;;;;1.80;1.47;;;;;;;20.39;39.44;102024.25;;;;-51
2020/01/04 12:06:52;;;;;;;1.60;1.50;;;;;;;20.40;39.45;102021.19;;;;-52
2020/01/04 12:09:52;;;;;;;1.63;1.41;;;;;;;20.41;39.41;102021.08;;;;-51
2020/01/04 12:12:53;;;;;;;1.94;1.49;;;;;;;20.43;39.42;102012.41;;;;-52
2020/01/04 12:15:52;;;;;;;1.58;1.47;;;;;;;20.43;39.46;102007.72;;;;-48
2020/01/04 12:18:53;;;;;;;2.19;1.66;;;;;;;20.43;39.35;102001.69;;;;-48
2020/01/04 12:21:52;;;;;;;2.19;1.40;;;;;;;20.45;39.29;102013.72;;;;-48
2020/01/04 12:24:52;;;;;;;1.99;1.46;;;;;;;20.44;39.35;102008.58;;;;-48
2020/01/04 12:27:52;;;;;;;2.51;1.55;;;;;;;20.45;39.33;102004.45;;;;-48
2020/01/04 12:30:52;;;;;;;1.85;1.40;;;;;;;20.45;39.37;101998.57;;;;-48
2020/01/04 12:33:52;;;;;;;2.02;1.47;;;;;;;20.46;39.33;101995.32;;;;-59
2020/01/04 12:36:52;;;;;;;1.83;1.49;;;;;;;20.46;39.38;101992.47;;;;-59
2020/01/04 12:39:52;;;;;;;2.71;1.48;;;;;;;20.46;39.33;101990.58;;;;-59
2020/01/04 12:42:52;;;;;;;2.23;1.49;;;;;;;20.46;39.33;101982.47;;;;-59
2020/01/04 12:45:52;;;;;;;1.89;1.50;;;;;;;20.46;39.32;101979.34;;;;-48
2020/01/04 12:48:52;;;;;;;2.03;1.51;;;;;;;20.47;39.32;101979.45;;;;-50
2020/01/04 12:51:52;;;;;;;2.03;1.40;;;;;;;20.47;39.34;101974.82;;;;-50
2020/01/04 12:54:53;;;;;;;1.54;1.37;;;;;;;20.47;39.35;101975.54;;;;-50
2020/01/04 12:57:52;;;;;;;1.65;1.53;;;;;;;20.52;39.45;101975.86;;;;-49
2020/01/04 13:00:52;;;;;;;3.07;1.83;;;;;;;20.50;38.84;101970.42;;;;-52
2020/01/04 13:03:52;;;;;;;2.77;1.84;;;;;;;20.51;39.17;101965.28;;;;-51
2020/01/04 13:06:52;;;;;;;2.77;1.81;;;;;;;20.52;38.41;101964.91;;;;-52
2020/01/04 13:09:52;;;;;;;2.97;1.80;;;;;;;20.54;38.90;101956.03;;;;-48
2020/01/04 13:12:53;;;;;;;2.56;1.78;;;;;;;20.55;38.98;101962.14;;;;-49
2020/01/04 13:15:52;;;;;;;2.36;1.69;;;;;;;20.56;38.76;101959.39;;;;-45
2020/01/04 13:18:52;;;;;;;3.24;1.85;;;;;;;20.63;39.08;101954.09;;;;-54
2020/01/04 13:21:52;;;;;;;4.16;1.89;;;;;;;20.63;39.22;101950.52;;;;-49
2020/01/04 13:24:52;;;;;;;2.37;1.71;;;;;;;20.66;39.70;101954.90;;;;-59
2020/01/04 13:27:52;;;;;;;2.39;1.51;;;;;;;20.67;39.57;101949.25;;;;-54
2020/01/04 13:30:52;;;;;;;4.34;1.63;;;;;;;20.69;39.58;101952.73;;;;-53
2020/01/04 13:33:52;;;;;;;3.04;1.69;;;;;;;20.72;39.74;101961.61;;;;-49
2020/01/04 13:36:52;;;;;;;2.06;1.49;;;;;;;20.74;39.78;101966.21;;;;-50
2020/01/04 13:39:52;;;;;;;3.71;1.77;;;;;;;20.76;40.19;101969.92;;;;-48
2020/01/04 13:42:52;;;;;;;2.01;1.64;;;;;;;20.77;39.93;101971.72;;;;-50
2020/01/04 13:45:52;;;;;;;2.81;1.66;;;;;;;20.79;40.26;101980.53;;;;-52
2020/01/04 13:48:52;;;;;;;2.87;1.78;;;;;;;20.80;39.83;101977.54;;;;-48
2020/01/04 13:51:52;;;;;;;2.65;1.73;;;;;;;20.82;39.60;101971.23;;;;-48
2020/01/04 13:55:00;;;;;;;2.62;1.61;;;;;;;20.82;39.58;101972.46;;;;-48
2020/01/04 13:57:52;;;;;;;2.51;1.61;;;;;;;20.82;39.73;101982.48;;;;-47
2020/01/04 14:00:52;;;;;;;4.91;1.80;;;;;;;20.79;38.70;101989.37;;;;-51
2020/01/04 14:03:52;;;;;;;3.35;1.72;;;;;;;20.79;39.24;101995.91;;;;-50
2020/01/04 14:06:53;;;;;;;4.01;1.90;;;;;;;20.80;39.02;101996.44;;;;-50
2020/01/04 14:09:53;;;;;;;2.99;1.89;;;;;;;20.83;39.48;101995.76;;;;-46
2020/01/04 14:12:52;;;;;;;4.16;1.93;;;;;;;20.84;39.93;102002.76;;;;-47
2020/01/04 14:15:53;;;;;;;2.81;1.95;;;;;;;20.85;39.90;102003.34;;;;-48
2020/01/04 14:18:52;;;;;;;2.77;1.87;;;;;;;20.87;40.54;102008.88;;;;-48
2020/01/04 14:21:52;;;;;;;4.47;1.87;;;;;;;20.87;40.75;102008.45;;;;-49
2020/01/04 14:24:52;;;;;;;4.88;2.02;;;;;;;20.89;40.62;101999.22;;;;-50
2020/01/04 14:27:52;;;;;;;2.77;1.66;;;;;;;20.89;40.77;101995.91;;;;-53
2020/01/04 14:30:52;;;;;;;2.20;1.68;;;;;;;20.91;39.93;101996.27;;;;-52
2020/01/04 14:33:52;;;;;;;3.90;1.73;;;;;;;20.91;39.80;102011.55;;;;-58
2020/01/04 14:36:52;;;;;;;2.75;1.72;;;;;;;20.92;39.82;101998.53;;;;-58
2020/01/04 14:39:58;;;;;;;4.93;1.70;;;;;;;20.92;39.63;101992.97;;;;-58
2020/01/04 14:42:52;;;;;;;3.08;1.77;;;;;;;20.93;39.51;101991.62;;;;-57
2020/01/04 14:45:52;;;;;;;7.33;1.97;;;;;;;20.91;39.42;101991.58;;;;-59
2020/01/04 14:48:52;;;;;;;10.68;2.30;;;;;;;20.91;38.48;101982.50;;;;-58
2020/01/04 14:51:52;;;;;;;8.37;2.29;;;;;;;20.89;38.99;101979.19;;;;-51
2020/01/04 14:54:52;;;;;;;7.25;2.17;;;;;;;20.90;38.92;101985.18;;;;-52
2020/01/04 14:57:52;;;;;;;5.50;1.96;;;;;;;20.88;39.10;101982.48;;;;-52
2020/01/04 15:00:52;;;;;;;3.22;1.79;;;;;;;20.88;39.19;101983.54;;;;-52
2020/01/04 15:03:52;;;;;;;5.05;1.85;;;;;;;20.89;39.33;101980.19;;;;-54
2020/01/04 15:06:52;;;;;;;4.11;1.98;;;;;;;20.87;39.17;101975.86;;;;-53
2020/01/04 15:09:52;;;;;;;6.63;2.06;;;;;;;20.85;39.22;101979.53;;;;-54
2020/01/04 15:12:52;;;;;;;4.91;1.92;;;;;;;20.85;39.26;101977.14;;;;-54
2020/01/04 15:15:52;;;;;;;3.71;2.05;;;;;;;20.84;39.27;101978.08;;;;-54
2020/01/04 15:18:52;;;;;;;5.16;1.95;;;;;;;20.81;39.29;101973.69;;;;-54
2020/01/04 15:21:52;;;;;;;4.36;2.07;;;;;;;20.80;38.97;101967.63;;;;-54
2020/01/04 15:24:52;;;;;;;5.11;1.85;;;;;;;20.78;39.08;101970.89;;;;-54
2020/01/04 15:27:52;;;;;;;4.81;1.79;;;;;;;20.77;39.18;101969.98;;;;-53
2020/01/04 15:30:52;;;;;;;5.41;1.85;;;;;;;20.76;39.20;101968.00;;;;-54
2020/01/04 15:33:52;;;;;;;9.78;2.61;;;;;;;20.63;38.36;101971.89;;;;-56
2020/01/04 15:36:53;;;;;;;8.86;2.79;;;;;;;20.62;38.71;101976.13;;;;-53
2020/01/04 15:39:52;;;;;;;11.27;2.71;;;;;;;20.63;38.93;101986.33;;;;-52
2020/01/04 15:42:52;;;;;;;10.02;2.19;;;;;;;20.60;39.22;102001.67;;;;-52
2020/01/04 15:45:52;;;;;;;10.71;2.51;;;;;;;20.62;39.82;102003.67;;;;-51
2020/01/04 15:48:52;;;;;;;8.37;2.34;;;;;;;20.63;40.05;102009.59;;;;-52
2020/01/04 15:51:52;;;;;;;8.46;2.46;;;;;;;20.61;39.85;102020.66;;;;-52
2020/01/04 15:54:52;;;;;;;5.92;2.49;;;;;;;20.59;39.72;102019.68;;;;-51
2020/01/04 15:57:52;;;;;;;7.32;2.41;;;;;;;20.59;39.95;102017.45;;;;-51
2020/01/04 16:00:52;;;;;;;6.62;2.29;;;;;;;20.60;40.32;102016.67;;;;-54
2020/01/04 16:03:52;;;;;;;11.93;2.31;;;;;;;20.58;40.30;102023.37;;;;-51
2020/01/04 16:06:52;;;;;;;6.44;2.35;;;;;;;20.59;39.70;102030.15;;;;-50
2020/01/04 16:09:52;;;;;;;4.77;2.28;;;;;;;20.58;39.73;102025.56;;;;-58
2020/01/04 16:12:52;;;;;;;4.42;2.22;;;;;;;20.59;39.91;102025.12;;;;-48
2020/01/04 16:15:53;;;;;;;14.40;2.62;;;;;;;20.60;40.01;102027.92;;;;-53
2020/01/04 16:18:52;;;;;;;6.39;2.29;;;;;;;20.60;40.42;102024.34;;;;-53
2020/01/04 16:21:52;;;;;;;5.14;2.28;;;;;;;20.60;40.42;102032.73;;;;-53
2020/01/04 16:24:52;;;;;;;3.61;2.03;;;;;;;20.60;40.50;102040.23;;;;-59
2020/01/04 16:27:52;;;;;;;6.56;2.08;;;;;;;20.61;41.01;102048.25;;;;-59
2020/01/04 16:30:52;;;;;;;5.25;2.30;;;;;;;20.61;40.71;102040.45;;;;-58
2020/01/04 16:33:52;;;;;;;4.35;2.30;;;;;;;20.60;40.76;102032.41;;;;-58
2020/01/04 16:36:52;;;;;;;4.22;2.29;;;;;;;20.63;40.63;102028.39;;;;-58
2020/01/04 16:39:52;;;;;;;5.97;2.41;;;;;;;20.63;40.43;102037.14;;;;-59